Time;durP1;ratioP1;P1;durP2;ratioP2;P2;SDS_P1;SDS_P2;PMS_P1;PMS_P2;Temp;Humidity;BMP_temperature;BMP_pressure;BME280_temperature;BME280_humidity;BME280_pressure;Samples;Min_cycle;Max_cycle;Signal;HPM_P1;HPM_P2
2023/05/24 00:02:06;;;;;;;;;;;18.90;51.00;;;;;;5052681;28;19925;-68
2023/05/24 00:04:32;;;;;;;;;;;18.90;51.00;;;;;;5085236;28;20357;-67
2023/05/24 00:06:57;;;;;;;;;;;18.90;51.00;;;;;;5052494;28;19975;-67
2023/05/24 00:09:23;;;;;;;;;;;18.90;51.10;;;;;;5085163;28;20361;-67
2023/05/24 00:11:48;;;;;;;;;;;18.80;51.00;;;;;;5051335;28;19921;-67
2023/05/24 00:14:14;;;;;;;;;;;18.80;51.70;;;;;;5052424;28;20019;-67
2023/05/24 00:16:40;;;;;;;;;;;18.80;51.00;;;;;;5052437;28;19975;-67
2023/05/24 00:19:05;;;;;;;;;;;18.80;51.00;;;;;;5084675;28;20008;-67
2023/05/24 00:21:33;;;;;;;;;;;18.80;51.10;;;;;;5051060;28;19921;-67
2023/05/24 00:23:59;;;;;;;;;;;18.80;51.00;;;;;;5084560;28;19999;-67
2023/05/24 00:26:24;;;;;;;;;;;18.80;51.10;;;;;;5051417;28;20012;-67
2023/05/24 00:28:50;;;;;;;;;;;18.80;51.10;;;;;;5052109;28;19975;-67
2023/05/24 00:31:16;;;;;;;;;;;18.80;51.10;;;;;;5052308;28;19928;-67
2023/05/24 00:33:41;;;;;;;;;;;18.80;51.10;;;;;;5051919;28;19925;-67
2023/05/24 00:36:06;;;;;;;;;;;18.80;51.10;;;;;;5051224;28;19921;-67
2023/05/24 00:38:32;;;;;;;;;;;18.80;51.20;;;;;;5052112;28;20300;-69
2023/05/24 00:41:00;;;;;;;;;;;18.70;51.10;;;;;;5052187;28;20350;-67
2023/05/24 00:43:25;;;;;;;;;;;18.80;51.20;;;;;;5084701;28;20007;-67
2023/05/24 00:45:59;;;;;;;;;;;18.70;51.10;;;;;;5084410;28;20015;-67
2023/05/24 00:48:27;;;;;;;;;;;18.70;51.10;;;;;;5052160;28;20300;-67
2023/05/24 00:50:53;;;;;;;;;;;18.70;51.20;;;;;;5050786;28;19952;-67
2023/05/24 00:53:19;;;;;;;;;;;18.70;51.20;;;;;;5051906;28;19975;-67
2023/05/24 00:55:45;;;;;;;;;;;18.70;51.90;;;;;;5084666;28;19921;-67
2023/05/24 00:58:10;;;;;;;;;;;18.70;51.20;;;;;;5084300;28;19920;-67
2023/05/24 01:00:36;;;;;;;;;;;18.70;51.20;;;;;;5052010;28;19928;-67
2023/05/24 01:03:01;;;;;;;;;;;18.70;51.20;;;;;;5084220;28;19964;-68
2023/05/24 01:05:27;;;;;;;;;;;18.70;51.30;;;;;;5084576;28;19943;-67
2023/05/24 01:08:13;;;;;;;;;;;18.70;51.30;;;;;;5050895;28;19925;-67
2023/05/24 01:10:44;;;;;;;;;;;18.70;51.30;;;;;;5050490;28;19925;-67
2023/05/24 01:15:58;;;;;;;;;;;18.60;51.30;;;;;;5089962;28;19944;-66
2023/05/24 01:18:30;;;;;;;;;;;18.60;51.20;;;;;;5088582;28;19920;-67
2023/05/24 01:26:51;;;;;;;;;;;18.60;51.30;;;;;;5089936;28;19912;-66
2023/05/24 01:29:17;;;;;;;;;;;18.60;51.30;;;;;;5088375;28;19927;-67
2023/05/24 01:31:42;;;;;;;;;;;18.60;51.40;;;;;;5088920;28;20007;-66
2023/05/24 01:34:08;;;;;;;;;;;18.60;51.40;;;;;;5072109;28;19920;-67
2023/05/24 01:36:33;;;;;;;;;;;18.60;51.40;;;;;;5089714;28;19920;-67
2023/05/24 01:38:59;;;;;;;;;;;18.60;51.40;;;;;;5088438;28;19920;-67
2023/05/24 01:46:48;;;;;;;;;;;18.60;51.40;;;;;;5110269;27;19912;-66
2023/05/24 01:52:00;;;;;;;;;;;18.60;51.50;;;;;;5110258;27;19912;-66
2023/05/24 01:54:27;;;;;;;;;;;18.60;51.40;;;;;;5109083;28;19920;-66
2023/05/24 01:56:53;;;;;;;;;;;18.50;51.40;;;;;;5108861;28;19920;-66
2023/05/24 01:59:20;;;;;;;;;;;18.50;51.50;;;;;;5110297;28;20283;-67
2023/05/24 02:01:45;;;;;;;;;;;18.50;51.50;;;;;;5108764;28;20387;-67
2023/05/24 02:04:11;;;;;;;;;;;18.50;51.50;;;;;;5109129;28;19920;-67
2023/05/24 02:06:37;;;;;;;;;;;18.50;51.50;;;;;;5109159;28;19936;-69
2023/05/24 02:09:02;;;;;;;;;;;18.50;51.50;;;;;;5108991;28;19920;-67
2023/05/24 02:11:28;;;;;;;;;;;18.50;51.50;;;;;;5108401;28;19924;-67
2023/05/24 02:13:53;;;;;;;;;;;18.50;51.50;;;;;;5108591;28;19920;-66
2023/05/24 02:16:19;;;;;;;;;;;18.50;51.50;;;;;;5109821;28;19945;-67
2023/05/24 02:18:45;;;;;;;;;;;18.50;51.60;;;;;;5108868;28;19920;-67
2023/05/24 02:21:11;;;;;;;;;;;18.50;51.60;;;;;;5108381;28;19926;-67
2023/05/24 02:23:37;;;;;;;;;;;18.50;51.60;;;;;;5108652;28;19924;-67
2023/05/24 02:26:02;;;;;;;;;;;18.50;51.60;;;;;;5108689;28;19920;-66
2023/05/24 02:28:31;;;;;;;;;;;18.50;51.60;;;;;;5108598;28;20359;-67
2023/05/24 02:30:56;;;;;;;;;;;18.40;51.60;;;;;;5108227;28;19953;-67
2023/05/24 02:33:24;;;;;;;;;;;18.50;51.70;;;;;;5109467;28;19924;-67
2023/05/24 02:35:50;;;;;;;;;;;18.40;51.70;;;;;;5109461;28;19951;-69
2023/05/24 02:38:15;;;;;;;;;;;18.40;51.60;;;;;;5108338;28;19989;-67
2023/05/24 02:40:41;;;;;;;;;;;18.40;51.60;;;;;;5108425;28;19964;-67
2023/05/24 02:43:08;;;;;;;;;;;18.40;51.70;;;;;;5108008;28;20018;-67
2023/05/24 02:45:35;;;;;;;;;;;18.40;51.70;;;;;;5109300;28;20014;-67
2023/05/24 02:48:00;;;;;;;;;;;18.40;51.80;;;;;;5108370;28;20023;-67
2023/05/24 02:50:26;;;;;;;;;;;18.40;51.70;;;;;;5117282;28;20014;-66
2023/05/24 02:52:51;;;;;;;;;;;18.40;51.80;;;;;;5145359;27;20310;-68
2023/05/24 02:55:17;;;;;;;;;;;18.40;51.70;;;;;;5145515;27;19919;-67
2023/05/24 02:57:42;;;;;;;;;;;18.40;51.70;;;;;;5111061;28;19931;-68
2023/05/24 03:00:10;;;;;;;;;;;18.30;51.70;;;;;;5129564;28;20287;-67
2023/05/24 03:02:37;;;;;;;;;;;18.40;51.80;;;;;;5100953;28;19927;-67
2023/05/24 03:05:03;;;;;;;;;;;18.30;51.70;;;;;;5097463;28;20007;-67
2023/05/24 03:07:28;;;;;;;;;;;18.30;51.80;;;;;;5115521;28;19973;-67
2023/05/24 03:09:53;;;;;;;;;;;18.40;51.90;;;;;;5097451;28;19924;-66
2023/05/24 03:12:19;;;;;;;;;;;18.50;51.70;;;;;;5097590;28;19954;-67
2023/05/24 03:14:44;;;;;;;;;;;18.90;51.40;;;;;;5097196;28;20411;-67
2023/05/24 03:17:10;;;;;;;;;;;19.20;50.80;;;;;;5097653;28;19920;-67
2023/05/24 03:19:36;;;;;;;;;;;19.50;50.20;;;;;;5097362;28;20371;-67
2023/05/24 03:22:02;;;;;;;;;;;19.90;49.40;;;;;;5097126;28;19992;-66
2023/05/24 03:24:27;;;;;;;;;;;20.40;48.50;;;;;;5096923;28;19985;-67
2023/05/24 03:26:53;;;;;;;;;;;20.90;47.60;;;;;;5115309;28;19923;-67
2023/05/24 03:29:18;;;;;;;;;;;21.50;46.40;;;;;;5115293;28;19919;-67
2023/05/24 03:31:44;;;;;;;;;;;22.00;45.50;;;;;;5096883;28;19931;-67
2023/05/24 03:34:09;;;;;;;;;;;22.40;44.60;;;;;;5096801;28;19966;-67
2023/05/24 03:36:35;;;;;;;;;;;22.90;43.80;;;;;;5115128;28;19920;-67
2023/05/24 03:39:03;;;;;;;;;;;23.20;43.10;;;;;;5096951;28;20383;-67
2023/05/24 03:41:29;;;;;;;;;;;23.40;42.50;;;;;;5096690;28;19927;-67
2023/05/24 03:43:54;;;;;;;;;;;23.60;42.20;;;;;;5096981;28;19923;-66
2023/05/24 03:46:20;;;;;;;;;;;23.60;42.00;;;;;;5096613;28;20015;-67
2023/05/24 03:48:45;;;;;;;;;;;23.60;41.90;;;;;;5096593;28;19926;-67
2023/05/24 03:51:11;;;;;;;;;;;23.50;41.90;;;;;;5092958;28;20359;-66
2023/05/24 03:53:36;;;;;;;;;;;23.50;42.10;;;;;;5093323;28;20033;-66
2023/05/24 03:56:02;;;;;;;;;;;23.30;42.20;;;;;;5092993;28;20300;-67
2023/05/24 03:58:27;;;;;;;;;;;23.20;42.40;;;;;;5093323;28;19943;-66
2023/05/24 04:00:53;;;;;;;;;;;23.00;42.60;;;;;;5092954;28;20387;-67
2023/05/24 04:03:18;;;;;;;;;;;22.80;43.60;;;;;;5093162;28;19963;-67
2023/05/24 04:05:44;;;;;;;;;;;22.60;43.20;;;;;;5092860;28;19927;-67
2023/05/24 04:08:11;;;;;;;;;;;22.50;43.40;;;;;;5092919;28;19927;-67
2023/05/24 04:10:36;;;;;;;;;;;22.30;43.70;;;;;;5093738;28;20291;-67
2023/05/24 04:13:02;;;;;;;;;;;22.10;43.80;;;;;;5093427;28;19963;-69
2023/05/24 04:15:27;;;;;;;;;;;22.00;44.10;;;;;;5092383;28;20363;-69
2023/05/24 04:17:54;;;;;;;;;;;21.90;44.40;;;;;;5094054;28;20003;-67
2023/05/24 04:20:24;;;;;;;;;;;21.70;44.60;;;;;;5092566;28;20011;-67
2023/05/24 04:22:49;;;;;;;;;;;21.60;44.80;;;;;;5092873;28;19975;-67
2023/05/24 04:25:15;;;;;;;;;;;21.50;44.90;;;;;;5092439;28;19932;-67
2023/05/24 04:27:40;;;;;;;;;;;21.40;45.10;;;;;;5092428;28;19920;-67
2023/05/24 04:30:08;;;;;;;;;;;21.20;45.20;;;;;;5093848;28;19928;-67
2023/05/24 04:32:33;;;;;;;;;;;21.10;45.50;;;;;;5093601;28;19920;-67
2023/05/24 04:35:01;;;;;;;;;;;21.10;45.70;;;;;;5092499;28;19970;-67
2023/05/24 04:37:28;;;;;;;;;;;21.00;45.70;;;;;;5093518;28;19959;-67
2023/05/24 04:39:53;;;;;;;;;;;21.10;45.60;;;;;;5092182;28;19920;-67
2023/05/24 04:42:19;;;;;;;;;;;21.20;45.40;;;;;;5092469;28;20321;-67
2023/05/24 04:44:44;;;;;;;;;;;21.40;45.10;;;;;;5126212;27;20337;-66
2023/05/24 04:47:11;;;;;;;;;;;21.50;44.90;;;;;;5092359;28;19920;-67
2023/05/24 04:49:37;;;;;;;;;;;21.60;44.60;;;;;;5094534;28;19977;-66
2023/05/24 04:52:03;;;;;;;;;;;21.60;44.40;;;;;;5129727;27;20356;-66
2023/05/24 04:54:29;;;;;;;;;;;21.70;44.30;;;;;;5129333;27;19920;-66
2023/05/24 04:56:54;;;;;;;;;;;21.80;44.10;;;;;;5095514;28;19923;-66
2023/05/24 04:59:19;;;;;;;;;;;21.90;44.00;;;;;;5113500;28;19958;-67
2023/05/24 05:01:45;;;;;;;;;;;21.90;43.90;;;;;;5095361;28;19998;-67
2023/05/24 05:04:11;;;;;;;;;;;21.90;43.90;;;;;;5095141;28;20294;-67
2023/05/24 05:06:39;;;;;;;;;;;21.90;43.90;;;;;;5095392;28;20356;-67
2023/05/24 05:09:11;;;;;;;;;;;21.90;43.80;;;;;;5095060;28;19927;-67
2023/05/24 05:11:37;;;;;;;;;;;21.90;43.80;;;;;;5094881;28;19919;-67
2023/05/24 05:14:03;;;;;;;;;;;21.90;43.80;;;;;;5095193;28;19949;-67
2023/05/24 05:16:29;;;;;;;;;;;21.90;44.70;;;;;;5113360;28;19919;-67
2023/05/24 05:18:54;;;;;;;;;;;21.80;43.90;;;;;;5113118;28;20274;-67
2023/05/24 05:21:20;;;;;;;;;;;21.70;43.90;;;;;;5113168;28;20313;-66
2023/05/24 05:23:45;;;;;;;;;;;21.70;44.00;;;;;;5113094;28;19926;-67
2023/05/24 05:26:11;;;;;;;;;;;21.60;44.10;;;;;;5094813;28;20353;-67
2023/05/24 05:28:36;;;;;;;;;;;21.60;44.10;;;;;;5095018;28;19924;-67
2023/05/24 05:31:02;;;;;;;;;;;21.60;44.30;;;;;;5094488;28;19920;-67
2023/05/24 05:33:29;;;;;;;;;;;21.50;44.30;;;;;;5128382;27;19930;-67
2023/05/24 05:35:55;;;;;;;;;;;21.50;44.30;;;;;;5111409;28;19927;-67
2023/05/24 05:38:20;;;;;;;;;;;21.50;44.40;;;;;;5092513;28;19923;-67
2023/05/24 05:40:46;;;;;;;;;;;21.50;44.40;;;;;;5092064;28;20326;-66
2023/05/24 05:43:11;;;;;;;;;;;21.40;44.40;;;;;;5107163;28;20014;-66
2023/05/24 05:45:37;;;;;;;;;;;21.50;44.50;;;;;;5090462;28;19935;-67
2023/05/24 05:48:02;;;;;;;;;;;21.40;44.50;;;;;;5088331;28;19979;-67
2023/05/24 05:50:28;;;;;;;;;;;21.50;44.50;;;;;;5071162;28;19973;-67
2023/05/24 05:52:53;;;;;;;;;;;21.50;44.40;;;;;;5100720;28;19924;-67
2023/05/24 05:55:19;;;;;;;;;;;21.40;44.20;;;;;;5084163;28;20390;-67
2023/05/24 05:57:44;;;;;;;;;;;21.30;44.20;;;;;;5086991;28;19931;-64
2023/05/24 06:00:10;;;;;;;;;;;21.10;44.30;;;;;;5086115;28;19923;-64
2023/05/24 06:02:36;;;;;;;;;;;21.00;44.60;;;;;;5107013;28;20220;-64
2023/05/24 06:05:02;;;;;;;;;;;21.10;44.80;;;;;;5069007;28;19924;-64
2023/05/24 06:07:27;;;;;;;;;;;21.20;44.70;;;;;;5087830;28;19974;-64
2023/05/24 06:09:53;;;;;;;;;;;21.30;44.70;;;;;;5083950;28;19924;-64
2023/05/24 06:12:18;;;;;;;;;;;21.40;44.60;;;;;;5085911;28;20438;-64
2023/05/24 06:14:44;;;;;;;;;;;21.50;44.40;;;;;;5087822;28;19947;-64
2023/05/24 06:17:10;;;;;;;;;;;21.60;44.30;;;;;;5087053;28;19920;-65
2023/05/24 06:19:35;;;;;;;;;;;21.70;44.30;;;;;;5111233;28;19928;-68
2023/05/24 06:22:01;;;;;;;;;;;21.70;44.20;;;;;;5071972;28;19928;-68
2023/05/24 06:24:27;;;;;;;;;;;21.80;44.10;;;;;;5101340;27;20118;-68
2023/05/24 06:26:53;;;;;;;;;;;21.80;44.10;;;;;;5065900;28;20367;-66
2023/05/24 06:29:19;;;;;;;;;;;21.80;44.00;;;;;;5070943;28;19963;-66
2023/05/24 06:31:46;;;;;;;;;;;21.80;44.00;;;;;;5088262;28;19928;-67
2023/05/24 06:34:15;;;;;;;;;;;21.80;44.00;;;;;;5074049;28;19920;-68
2023/05/24 06:36:41;;;;;;;;;;;21.90;44.10;;;;;;5077154;28;20150;-65
2023/05/24 06:39:08;;;;;;;;;;;21.80;44.10;;;;;;5077272;28;20279;-65
2023/05/24 06:41:33;;;;;;;;;;;21.80;44.10;;;;;;5096009;28;19967;-67
2023/05/24 06:43:59;;;;;;;;;;;21.80;44.10;;;;;;5109645;27;20387;-66
2023/05/24 06:46:25;;;;;;;;;;;21.80;44.10;;;;;;5097387;28;19928;-66
2023/05/24 06:48:50;;;;;;;;;;;21.80;44.10;;;;;;5099712;28;20345;-66
2023/05/24 06:51:16;;;;;;;;;;;21.80;44.20;;;;;;5096285;28;19943;-67
2023/05/24 06:53:41;;;;;;;;;;;21.80;44.30;;;;;;5096408;28;19946;-67
2023/05/24 06:56:08;;;;;;;;;;;21.70;44.40;;;;;;5077575;28;20371;-67
2023/05/24 06:58:34;;;;;;;;;;;21.70;44.60;;;;;;5072788;28;19924;-67
2023/05/24 07:00:59;;;;;;;;;;;21.60;44.70;;;;;;5111880;27;20276;-66
2023/05/24 07:03:25;;;;;;;;;;;21.50;44.90;;;;;;5096705;28;20440;-66
2023/05/24 07:05:50;;;;;;;;;;;21.50;45.00;;;;;;5082983;28;19924;-66
2023/05/24 07:08:16;;;;;;;;;;;21.50;45.10;;;;;;5095488;28;19927;-66
2023/05/24 07:10:42;;;;;;;;;;;21.40;45.20;;;;;;5078297;28;19928;-68
2023/05/24 07:13:08;;;;;;;;;;;21.40;45.30;;;;;;5085563;28;19934;-67
2023/05/24 07:15:33;;;;;;;;;;;21.40;45.40;;;;;;5076317;28;19924;-67
2023/05/24 07:17:59;;;;;;;;;;;21.40;45.40;;;;;;5110202;27;20032;-70
2023/05/24 07:20:24;;;;;;;;;;;21.40;45.50;;;;;;5096453;28;19920;-69
2023/05/24 07:22:50;;;;;;;;;;;21.40;45.50;;;;;;5074972;28;20470;-68
2023/05/24 07:25:16;;;;;;;;;;;21.40;45.50;;;;;;5083305;28;19966;-68
2023/05/24 07:27:42;;;;;;;;;;;21.40;45.60;;;;;;5072993;28;20012;-67
2023/05/24 07:30:08;;;;;;;;;;;21.50;45.70;;;;;;5069009;28;20042;-70
2023/05/24 07:32:33;;;;;;;;;;;21.50;45.70;;;;;;5073848;28;20303;-71
2023/05/24 07:34:59;;;;;;;;;;;21.50;45.70;;;;;;5079728;28;19924;-69
2023/05/24 07:37:24;;;;;;;;;;;21.50;45.80;;;;;;5105901;27;19930;-67
2023/05/24 07:39:50;;;;;;;;;;;21.50;45.80;;;;;;5073428;28;19973;-67
2023/05/24 07:42:16;;;;;;;;;;;21.50;46.00;;;;;;5091505;28;19931;-69
2023/05/24 07:44:41;;;;;;;;;;;21.50;46.10;;;;;;5073094;28;19920;-64
2023/05/24 07:47:07;;;;;;;;;;;21.60;46.30;;;;;;5078227;28;19951;-68
2023/05/24 07:49:32;;;;;;;;;;;21.60;46.30;;;;;;5091889;28;19928;-68
2023/05/24 07:51:59;;;;;;;;;;;21.60;46.40;;;;;;5079791;28;20077;-71
2023/05/24 07:54:25;;;;;;;;;;;21.60;46.40;;;;;;5091608;28;19920;-68
2023/05/24 07:56:51;;;;;;;;;;;21.60;46.40;;;;;;5109978;27;20272;-67
2023/05/24 07:59:16;;;;;;;;;;;21.60;46.40;;;;;;5076709;28;19952;-67
2023/05/24 08:01:42;;;;;;;;;;;21.60;46.40;;;;;;5078712;28;19923;-69
2023/05/24 08:04:08;;;;;;;;;;;21.60;46.60;;;;;;5075951;28;19969;-69
2023/05/24 08:06:34;;;;;;;;;;;21.50;46.60;;;;;;5076509;28;20971;-67
2023/05/24 08:09:00;;;;;;;;;;;21.50;46.70;;;;;;5108941;27;20089;-67
2023/05/24 08:11:26;;;;;;;;;;;21.50;46.80;;;;;;5076475;28;20266;-67
2023/05/24 08:13:51;;;;;;;;;;;21.50;46.90;;;;;;5078823;28;20502;-66
2023/05/24 08:16:17;;;;;;;;;;;21.50;46.90;;;;;;5094878;28;20030;-68
2023/05/24 08:18:43;;;;;;;;;;;21.40;46.90;;;;;;5075516;28;19928;-68
2023/05/24 08:21:08;;;;;;;;;;;21.40;47.00;;;;;;5093082;28;20665;-68
2023/05/24 08:23:33;;;;;;;;;;;21.40;47.00;;;;;;5077217;28;19925;-68
2023/05/24 08:25:59;;;;;;;;;;;21.30;46.90;;;;;;5095610;28;19920;-68
2023/05/24 08:28:25;;;;;;;;;;;21.30;47.00;;;;;;5076090;28;19977;-68
2023/05/24 08:30:51;;;;;;;;;;;21.30;46.90;;;;;;5085335;28;19928;-68
2023/05/24 08:33:16;;;;;;;;;;;21.30;46.90;;;;;;5074022;28;19935;-66
2023/05/24 08:35:42;;;;;;;;;;;21.20;46.90;;;;;;5069610;28;19989;-66
2023/05/24 08:38:07;;;;;;;;;;;21.20;46.90;;;;;;5089912;28;19953;-71
2023/05/24 08:40:33;;;;;;;;;;;21.20;46.90;;;;;;5092384;28;19946;-67
2023/05/24 08:42:59;;;;;;;;;;;21.20;46.90;;;;;;5092117;28;19924;-67
2023/05/24 08:45:25;;;;;;;;;;;21.20;46.90;;;;;;5072489;28;19963;-70
2023/05/24 08:47:50;;;;;;;;;;;21.20;46.90;;;;;;5088591;28;20031;-67
2023/05/24 08:50:17;;;;;;;;;;;21.20;46.90;;;;;;5069231;28;20202;-67
2023/05/24 08:52:43;;;;;;;;;;;21.20;47.00;;;;;;5069797;28;20217;-68
2023/05/24 08:55:09;;;;;;;;;;;21.20;47.00;;;;;;5074407;28;19924;-69
2023/05/24 08:57:38;;;;;;;;;;;21.20;47.00;;;;;;5073067;28;20011;-69
2023/05/24 09:00:08;;;;;;;;;;;21.10;47.00;;;;;;5073621;28;20664;-68
2023/05/24 09:02:34;;;;;;;;;;;21.20;47.10;;;;;;5100580;27;19931;-68
2023/05/24 09:05:00;;;;;;;;;;;21.20;47.20;;;;;;5096724;27;19951;-67
2023/05/24 09:07:26;;;;;;;;;;;21.20;47.20;;;;;;5064691;28;20051;-67
2023/05/24 09:09:56;;;;;;;;;;;21.20;47.10;;;;;;5069754;28;19924;-67
2023/05/24 09:12:23;;;;;;;;;;;21.10;46.70;;;;;;5106529;27;20509;-67
2023/05/24 09:14:48;;;;;;;;;;;21.30;46.70;;;;;;5101520;27;19971;-69
2023/05/24 09:17:14;;;;;;;;;;;21.40;46.70;;;;;;5071001;28;19970;-69
2023/05/24 09:19:49;;;;;;;;;;;21.30;46.80;;;;;;5070675;28;19924;-68
2023/05/24 09:22:18;;;;;;;;;;;21.30;46.70;;;;;;5068735;28;19983;-72
2023/05/24 09:24:47;;;;;;;;;;;21.30;46.80;;;;;;5066230;28;19931;-67
2023/05/24 09:27:14;;;;;;;;;;;21.30;46.80;;;;;;5070641;28;19931;-67
2023/05/24 09:29:40;;;;;;;;;;;21.30;46.90;;;;;;5070766;28;19946;-67
2023/05/24 09:32:06;;;;;;;;;;;21.30;47.00;;;;;;5068693;28;20022;-66
2023/05/24 09:34:37;;;;;;;;;;;21.20;47.00;;;;;;5064846;28;20443;-66
2023/05/24 09:37:02;;;;;;;;;;;21.30;47.00;;;;;;5069486;28;19977;-63
2023/05/24 09:39:28;;;;;;;;;;;21.30;47.10;;;;;;5067643;28;19924;-64
2023/05/24 09:41:55;;;;;;;;;;;21.30;47.10;;;;;;5068285;28;19924;-64
2023/05/24 09:44:26;;;;;;;;;;;21.30;47.10;;;;;;5066891;28;19921;-64
2023/05/24 09:46:52;;;;;;;;;;;21.30;47.10;;;;;;5064406;28;19924;-68
2023/05/24 09:49:20;;;;;;;;;;;21.30;46.90;;;;;;5103760;27;19985;-68
2023/05/24 09:51:45;;;;;;;;;;;21.30;46.70;;;;;;5087495;28;20298;-67
2023/05/24 09:54:11;;;;;;;;;;;21.40;46.60;;;;;;5076397;28;20348;-66
2023/05/24 09:56:38;;;;;;;;;;;21.40;46.40;;;;;;5071440;28;20351;-66
2023/05/24 09:59:07;;;;;;;;;;;21.40;46.30;;;;;;5069769;28;19924;-66
2023/05/24 10:01:33;;;;;;;;;;;21.40;46.30;;;;;;5069761;28;20167;-66
2023/05/24 10:04:01;;;;;;;;;;;21.40;46.40;;;;;;5106690;28;20048;-66
2023/05/24 10:06:27;;;;;;;;;;;21.40;46.40;;;;;;5072637;28;19935;-66
2023/05/24 10:08:54;;;;;;;;;;;21.40;46.40;;;;;;5075380;28;20073;-66
2023/05/24 10:11:20;;;;;;;;;;;21.30;46.40;;;;;;5075053;28;19935;-69
2023/05/24 10:13:46;;;;;;;;;;;21.40;46.50;;;;;;5109136;27;19920;-68
2023/05/24 10:16:12;;;;;;;;;;;21.30;46.50;;;;;;5103098;27;19923;-67
2023/05/24 10:18:37;;;;;;;;;;;21.40;46.60;;;;;;5075398;28;19931;-67
2023/05/24 10:21:07;;;;;;;;;;;21.40;46.60;;;;;;5075539;28;20374;-68
2023/05/24 10:23:32;;;;;;;;;;;21.30;46.70;;;;;;5071235;28;20294;-66
2023/05/24 10:26:02;;;;;;;;;;;21.30;46.70;;;;;;5092787;28;19920;-67
2023/05/24 10:28:29;;;;;;;;;;;21.30;46.80;;;;;;5072776;28;20507;-67
2023/05/24 10:31:11;;;;;;;;;;;21.30;46.80;;;;;;5072180;28;19924;-66
2023/05/24 10:33:37;;;;;;;;;;;21.30;46.80;;;;;;5072783;28;20465;-67
2023/05/24 10:36:05;;;;;;;;;;;21.30;46.90;;;;;;5076298;28;19976;-66
2023/05/24 10:38:31;;;;;;;;;;;21.30;46.90;;;;;;5092131;28;19984;-67
2023/05/24 10:40:56;;;;;;;;;;;21.30;46.90;;;;;;5096108;28;19951;-66
2023/05/24 10:43:22;;;;;;;;;;;21.30;46.90;;;;;;5078122;28;20449;-67
2023/05/24 10:45:48;;;;;;;;;;;21.20;46.70;;;;;;5074885;28;19935;-67
2023/05/24 10:50:54;;;;;;;;;;;21.30;46.50;;;;;;5083985;27;19938;-67
2023/05/24 10:53:21;;;;;;;;;;;21.20;46.30;;;;;;5091993;28;19978;-66
2023/05/24 10:56:03;;;;;;;;;;;21.20;46.50;;;;;;5091923;28;20371;-67
2023/05/24 10:58:48;;;;;;;;;;;21.10;46.50;;;;;;5089011;28;20161;-67
2023/05/24 11:01:31;;;;;;;;;;;21.00;46.60;;;;;;5095373;28;19963;-67
2023/05/24 11:04:14;;;;;;;;;;;21.00;46.30;;;;;;5116354;28;20395;-67
2023/05/24 11:06:44;;;;;;;;;;;21.00;46.50;;;;;;5116172;28;20007;-66
2023/05/24 11:09:09;;;;;;;;;;;21.00;46.30;;;;;;5088194;28;19924;-67
2023/05/24 11:11:36;;;;;;;;;;;21.00;46.20;;;;;;5098643;28;20003;-67
2023/05/24 11:14:01;;;;;;;;;;;21.00;46.10;;;;;;5100331;28;20235;-67
2023/05/24 11:16:44;;;;;;;;;;;20.90;46.00;;;;;;5104065;28;19973;-66
2023/05/24 11:19:29;;;;;;;;;;;20.90;46.10;;;;;;5100446;28;19931;-67
2023/05/24 11:21:57;;;;;;;;;;;20.90;46.10;;;;;;5100765;28;19920;-67
2023/05/24 11:24:24;;;;;;;;;;;20.90;46.20;;;;;;5089678;28;20423;-67
2023/05/24 11:26:50;;;;;;;;;;;20.90;46.30;;;;;;5121659;27;19924;-66
2023/05/24 11:29:17;;;;;;;;;;;20.90;46.30;;;;;;5090874;28;19974;-66
2023/05/24 11:31:47;;;;;;;;;;;20.80;46.20;;;;;;5094919;28;19960;-66
2023/05/24 11:34:12;;;;;;;;;;;20.80;46.30;;;;;;5095297;28;19924;-66
2023/05/24 11:36:38;;;;;;;;;;;20.90;46.30;;;;;;5088079;28;19969;-66
2023/05/24 11:39:07;;;;;;;;;;;20.90;46.40;;;;;;5094625;28;19928;-66
2023/05/24 11:41:36;;;;;;;;;;;20.80;46.20;;;;;;5092458;28;20227;-66
2023/05/24 11:44:02;;;;;;;;;;;20.90;46.20;;;;;;5088577;28;19920;-66
2023/05/24 11:46:28;;;;;;;;;;;20.90;46.00;;;;;;5088470;28;19931;-66
2023/05/24 11:48:55;;;;;;;;;;;20.90;46.00;;;;;;5090290;28;19924;-66
2023/05/24 11:51:24;;;;;;;;;;;20.90;46.00;;;;;;5088755;28;19920;-66
2023/05/24 11:53:50;;;;;;;;;;;20.90;45.90;;;;;;5096581;28;19920;-66
2023/05/24 11:56:15;;;;;;;;;;;21.00;45.80;;;;;;5093131;28;20023;-66
2023/05/24 11:58:47;;;;;;;;;;;21.00;45.70;;;;;;5090382;28;20080;-66
2023/05/24 12:01:27;;;;;;;;;;;21.00;45.70;;;;;;5090218;28;20882;-66
2023/05/24 12:03:53;;;;;;;;;;;21.00;45.60;;;;;;5111076;27;20565;-66
2023/05/24 12:06:20;;;;;;;;;;;21.00;45.40;;;;;;5075708;28;19928;-66
2023/05/24 12:08:46;;;;;;;;;;;21.00;45.30;;;;;;5076582;28;20116;-66
2023/05/24 12:11:12;;;;;;;;;;;21.00;45.30;;;;;;5078508;28;19955;-66
2023/05/24 12:13:38;;;;;;;;;;;21.00;45.40;;;;;;5080131;28;19924;-74
2023/05/24 12:16:05;;;;;;;;;;;21.00;45.20;;;;;;5088653;28;20014;-66
2023/05/24 12:18:31;;;;;;;;;;;21.00;45.10;;;;;;5091360;28;19924;-66
2023/05/24 12:20:56;;;;;;;;;;;21.00;45.10;;;;;;5099608;28;19920;-66
2023/05/24 12:23:22;;;;;;;;;;;21.00;45.20;;;;;;5091670;28;19920;-67
2023/05/24 12:25:48;;;;;;;;;;;21.00;45.20;;;;;;5089189;28;20318;-66
2023/05/24 12:28:15;;;;;;;;;;;21.00;45.10;;;;;;5091929;28;19919;-66
2023/05/24 12:30:43;;;;;;;;;;;21.00;45.20;;;;;;5089610;28;19925;-66
2023/05/24 12:33:09;;;;;;;;;;;21.10;45.30;;;;;;5089627;28;20546;-66
2023/05/24 12:35:35;;;;;;;;;;;21.00;45.20;;;;;;5088114;28;20010;-67
2023/05/24 12:38:00;;;;;;;;;;;21.00;45.10;;;;;;5087977;28;19920;-67
2023/05/24 12:40:26;;;;;;;;;;;21.00;45.30;;;;;;5089666;28;19927;-67
2023/05/24 12:42:54;;;;;;;;;;;20.90;45.10;;;;;;5089731;28;19927;-67
2023/05/24 12:45:24;;;;;;;;;;;20.90;45.20;;;;;;5088929;28;19923;-68
2023/05/24 12:47:50;;;;;;;;;;;20.90;45.30;;;;;;5089552;28;19924;-67
2023/05/24 12:50:17;;;;;;;;;;;20.90;45.30;;;;;;5104365;28;19934;-67
2023/05/24 12:52:46;;;;;;;;;;;20.90;45.30;;;;;;5107805;27;19964;-67
2023/05/24 12:55:15;;;;;;;;;;;20.80;45.30;;;;;;5115078;27;19920;-67
2023/05/24 12:57:40;;;;;;;;;;;20.80;45.30;;;;;;5088888;28;20402;-68
2023/05/24 13:00:07;;;;;;;;;;;20.80;45.40;;;;;;5119270;27;19981;-67
2023/05/24 13:02:32;;;;;;;;;;;20.80;45.40;;;;;;5117997;27;19923;-67
2023/05/24 13:04:58;;;;;;;;;;;20.80;45.40;;;;;;5087963;28;19927;-65
2023/05/24 13:07:23;;;;;;;;;;;20.80;45.50;;;;;;5089209;28;19928;-66
2023/05/24 13:09:49;;;;;;;;;;;20.70;45.60;;;;;;5105587;28;19953;-65
2023/05/24 13:12:14;;;;;;;;;;;20.70;45.70;;;;;;5091929;28;20379;-66
2023/05/24 13:14:40;;;;;;;;;;;20.70;45.80;;;;;;5093887;28;19920;-67
2023/05/24 13:17:06;;;;;;;;;;;20.70;46.00;;;;;;5111679;28;20080;-66
2023/05/24 13:19:32;;;;;;;;;;;20.70;46.10;;;;;;5092545;28;19927;-67
2023/05/24 13:21:57;;;;;;;;;;;20.70;46.20;;;;;;5093870;28;19920;-66
2023/05/24 13:24:23;;;;;;;;;;;20.70;46.20;;;;;;5092424;28;19919;-67
2023/05/24 13:26:48;;;;;;;;;;;20.70;46.40;;;;;;5092369;28;19919;-66
2023/05/24 13:29:14;;;;;;;;;;;20.60;46.40;;;;;;5107238;28;20047;-67
2023/05/24 13:31:39;;;;;;;;;;;20.60;46.60;;;;;;5118462;27;20432;-72
2023/05/24 13:34:05;;;;;;;;;;;20.60;46.50;;;;;;5110325;28;19924;-66
2023/05/24 13:36:31;;;;;;;;;;;20.60;46.50;;;;;;5092482;28;19955;-66
2023/05/24 13:38:57;;;;;;;;;;;20.50;46.60;;;;;;5092286;28;20015;-67
2023/05/24 13:41:23;;;;;;;;;;;20.60;46.60;;;;;;5092656;28;19931;-67
2023/05/24 13:43:50;;;;;;;;;;;20.50;46.60;;;;;;5111321;28;20046;-65
2023/05/24 13:46:15;;;;;;;;;;;20.50;46.60;;;;;;5092119;28;19963;-65
2023/05/24 13:48:41;;;;;;;;;;;20.60;46.70;;;;;;5093342;28;19962;-66
2023/05/24 13:51:07;;;;;;;;;;;20.50;46.80;;;;;;5093714;28;20370;-66
2023/05/24 13:53:32;;;;;;;;;;;20.50;46.80;;;;;;5111528;28;19926;-67
2023/05/24 13:55:58;;;;;;;;;;;20.50;46.80;;;;;;5094553;28;19971;-67
2023/05/24 13:58:23;;;;;;;;;;;20.50;46.80;;;;;;5094396;28;20329;-67
2023/05/24 14:00:49;;;;;;;;;;;20.50;46.80;;;;;;5094181;28;19927;-67
2023/05/24 14:03:14;;;;;;;;;;;20.50;46.90;;;;;;5093154;28;19920;-67
2023/05/24 14:05:40;;;;;;;;;;;20.40;46.90;;;;;;5108725;28;19924;-68
2023/05/24 14:08:06;;;;;;;;;;;20.50;47.00;;;;;;5111181;27;20287;-67
2023/05/24 14:10:35;;;;;;;;;;;20.40;46.90;;;;;;5092327;28;19920;-67
2023/05/24 14:13:00;;;;;;;;;;;20.40;46.90;;;;;;5094587;28;19923;-67
2023/05/24 14:15:26;;;;;;;;;;;20.40;46.90;;;;;;5094363;28;20448;-67
2023/05/24 14:17:52;;;;;;;;;;;20.40;46.90;;;;;;5111883;28;20407;-67
2023/05/24 14:20:17;;;;;;;;;;;20.40;46.90;;;;;;5094099;28;19969;-67
2023/05/24 14:22:43;;;;;;;;;;;20.40;46.90;;;;;;5093234;28;19920;-67
2023/05/24 14:25:09;;;;;;;;;;;20.30;47.00;;;;;;5094254;28;19919;-67
2023/05/24 14:27:34;;;;;;;;;;;20.30;47.00;;;;;;5094679;28;19972;-67
2023/05/24 14:30:00;;;;;;;;;;;20.30;47.00;;;;;;5094556;28;19920;-67
2023/05/24 14:32:28;;;;;;;;;;;20.30;47.00;;;;;;5094737;28;19931;-67